Emerald Leader — C6WP4 — position and weather

sailwx.info

Track history (hours):
 
Tides and Currents Weather Stations Pressure Air Temp Water Temp Dewpoint Dewpoint Depression Visibility Wind Speed Wind Dir Waves Ship Positions

Emerald Leader

Last reported at 2017-Jul-22 19:53 UTC. Time now 2017-Jul-28 08:40 UTC.
Position N 37°36' E 023°57'.

Length 176 m; draft 7.9 m.

Type: Cargo ship. MMSI: 308688000.

Date/timePositionNaut miles runAvg speedWind from/ knotsBaromVisibWave heightAir tempDewpointWater temp
2017-Jul-22 19:53N 37°36' E 023°57'715.8
2017-Jul-22 19:25N 37°36' E 023°48'615.0
2017-Jul-22 19:01N 37°40' E 023°42'815.7
2017-Jul-22 18:31N 37°47' E 023°38'815.1
2017-Jul-22 18:01N 37°55' E 023°37'3 5.5
2017-Jul-22 17:29N 37°58' E 023°36'0 0.0
2017-Jul-22 16:59N 37°58' E 023°36'0 0.0
2017-Jul-22 16:26N 37°58' E 023°36'0 0.0
2017-Jul-22 15:59N 37°58' E 023°36'0 0.0
2017-Jul-22 15:29N 37°58' E 023°36'0 0.0
2017-Jul-22 14:59N 37°58' E 023°36'0 0.0
2017-Jul-22 13:59N 37°58' E 023°36'0 0.0
2017-Jul-22 13:29N 37°58' E 023°36'0 0.0
2017-Jul-22 12:56N 37°58' E 023°36'0 0.0
2017-Jul-22 12:29N 37°58' E 023°36'1 1.8
2017-Jul-22 12:00N 37°57' E 023°36'3 5.1
2017-Jul-22 11:30N 37°54' E 023°37'1 1.4
2017-Jul-22 11:00N 37°54' E 023°36'1 1.1
2017-Jul-22 10:30N 37°54' E 023°36'0 0.6
2017-Jul-22 10:00N 37°54' E 023°35'2 3.4
2017-Jul-22 09:30N 37°53' E 023°37'510.2
2017-Jul-22 09:00N 37°49' E 023°41'510.7
2017-Jul-22 08:30N 37°44' E 023°43'713.2
2017-Jul-22 08:00N 37°37' E 023°45'25011.6
2017-Jul-21 10:30N 37°12' E 018°32'815.8
2017-Jul-21 10:00N 37°14' E 018°23'2016.0
2017-Jul-21 08:45N 37°19' E 017°58'2616.2
2017-Jul-21 07:10N 37°26' E 017°28'316.3
2017-Jul-21 06:58N 37°27' E 017°24'817.1
2017-Jul-21 06:30N 37°29' E 017°14'816.5
2017-Jul-21 06:00N 37°31' E 017°04'815.8
2017-Jul-21 05:30N 37°33' E 016°54'915.7
2017-Jul-21 04:55N 37°36' E 016°43'715.5
2017-Jul-21 04:30N 37°38' E 016°35'2015.5
2017-Jul-21 03:14N 37°41' E 016°11'1415.2
2017-Jul-21 02:18N 37°47' E 015°54'515.2
2017-Jul-21 01:59N 37°48' E 015°48'1512.8
2017-Jul-21 00:48N 37°57' E 015°34'516.1
2017-Jul-21 00:29N 38°03' E 015°33'715.5
2017-Jul-21 00:00N 38°10' E 015°35'816.3
2017-Jul-20 23:29N 38°17' E 015°40'611.7
2017-Jul-20 22:59N 38°22' E 015°36'714.8
2017-Jul-20 22:30N 38°27' E 015°30'815.8
2017-Jul-20 22:00N 38°33' E 015°23'815.9
2017-Jul-20 21:30N 38°38' E 015°16'815.7
2017-Jul-20 21:00N 38°44' E 015°09'815.6
2017-Jul-20 20:28N 38°49' E 015°01'715.5
2017-Jul-20 20:00N 38°54' E 014°53'21915.7
2017-Jul-20 06:02N 41°20' E 011°19'015.5
2017-Jul-20 06:00N 41°20' E 011°19'915.4
2017-Jul-20 05:26N 41°26' E 011°10'715.3
2017-Jul-20 05:00N 41°30' E 011°03'815.4
2017-Jul-20 04:31N 41°35' E 010°55'1015.4
2017-Jul-20 03:51N 41°42' E 010°45'715.3
2017-Jul-20 03:22N 41°47' E 010°38'515.0
2017-Jul-20 03:00N 41°51' E 010°32'1615.1
2017-Jul-20 01:56N 42°01' E 010°16'715.3
2017-Jul-20 01:30N 42°05' E 010°09'815.8
2017-Jul-20 01:00N 42°07' E 009°59'1813.2
2017-Jul-19 23:37N 42°24' E 009°50'215.9
2017-Jul-19 23:30N 42°26' E 009°51'915.7
2017-Jul-19 22:55N 42°35' E 009°52'615.5
2017-Jul-19 22:30N 42°42' E 009°54'815.4
2017-Jul-19 22:00N 42°49' E 009°56'815.4
2017-Jul-19 21:31N 42°57' E 009°58'815.5
2017-Jul-19 21:01N 43°04' E 010°01'815.5
2017-Jul-19 20:31N 43°12' E 010°03'815.8
2017-Jul-19 20:01N 43°19' E 010°06'815.7
2017-Jul-19 19:31N 43°27' E 010°09'713.4
2017-Jul-19 19:00N 43°32' E 010°15'3 6.8
2017-Jul-19 18:31N 43°34' E 010°18'1 1.1
2017-Jul-19 17:59N 43°35' E 010°18'0 0.0
2017-Jul-19 17:29N 43°35' E 010°18'0 0.0
2017-Jul-19 16:59N 43°35' E 010°18'0 0.0
2017-Jul-19 16:26N 43°35' E 010°18'0 0.0
2017-Jul-19 15:47N 43°35' E 010°18'0 0.0
2017-Jul-19 15:26N 43°35' E 010°18'0 0.0
2017-Jul-19 14:59N 43°35' E 010°18'0 0.0
2017-Jul-19 14:23N 43°35' E 010°18'0 0.0
2017-Jul-19 13:59N 43°35' E 010°18'0 0.0
2017-Jul-19 13:29N 43°35' E 010°18'0 0.0
2017-Jul-19 12:59N 43°35' E 010°18'0 0.0
2017-Jul-19 12:26N 43°35' E 010°18'0 0.0
2017-Jul-19 11:56N 43°35' E 010°18'0 0.0
2017-Jul-19 11:23N 43°35' E 010°18'0 0.0
2017-Jul-19 10:59N 43°35' E 010°18'0 0.0
2017-Jul-19 10:29N 43°35' E 010°18'0 0.0
2017-Jul-19 09:59N 43°35' E 010°18'0 0.0
2017-Jul-19 09:26N 43°35' E 010°18'0 0.0
2017-Jul-19 08:56N 43°35' E 010°18'0 0.0
2017-Jul-19 08:29N 43°35' E 010°18'0 0.7
2017-Jul-19 08:00N 43°34' E 010°18'4 8.1
2017-Jul-19 07:30N 43°31' E 010°15'4 8.4
2017-Jul-19 07:00N 43°27' E 010°13'1 1.4
2017-Jul-19 06:30N 43°27' E 010°13'0 0.9
2017-Jul-19 06:01N 43°26' E 010°12'2 3.4
2017-Jul-19 05:30N 43°25' E 010°10'5 9.1
2017-Jul-19 05:00N 43°22' E 010°05'611.2
2017-Jul-19 04:31N 43°19' E 010°00'815.2
2017-Jul-19 04:01N 43°16' E 009°50'815.5
2017-Jul-19 03:31N 43°15' E 009°40'815.6
2017-Jul-19 03:01N 43°13' E 009°29'815.4
2017-Jul-19 02:31N 43°11' E 009°19'815.5
2017-Jul-19 02:01N 43°09' E 009°09'815.9
2017-Jul-19 01:29N 43°07' E 008°57'613.0
2017-Jul-19 01:00N 43°06' E 008°49'1013.2
2017-Jul-19 00:16N 42°60' E 008°39'615.9
2017-Jul-18 23:53N 42°57' E 008°32'715.8
2017-Jul-18 23:26N 42°53' E 008°24'715.6
2017-Jul-18 23:00N 42°50' E 008°15'815.6
2017-Jul-18 22:30N 42°46' E 008°06'815.7
2017-Jul-18 22:00N 42°43' E 007°56'5 9.0
2017-Jul-18 21:31N 42°41' E 007°51'0 0.5
2017-Jul-18 21:00N 42°41' E 007°51'0 0.5
2017-Jul-18 20:15N 42°41' E 007°50'1 0.5
2017-Jul-18 18:13N 42°40' E 007°49'0 0.4
2017-Jul-18 18:00N 42°40' E 007°49'0 0.4
2017-Jul-18 17:02N 42°40' E 007°49'0 0.6
2017-Jul-18 17:01N 42°40' E 007°49'0 0.4
2017-Jul-18 16:30N 42°40' E 007°48'21 7.6
2017-Jul-18 13:46N 42°30' E 007°24'415.5
2017-Jul-18 13:30N 42°28' E 007°19'1115.2
2017-Jul-18 12:49N 42°22' E 007°06'1515.2
2017-Jul-18 11:49N 42°15' E 006°48'1115.3
2017-Jul-18 11:04N 42°10' E 006°35'115.4
2017-Jul-18 11:00N 42°09' E 006°34'1915.4
2017-Jul-18 09:46N 41°58' E 006°13'1015.3
2017-Jul-18 09:09N 41°53' E 006°02'215.1
2017-Jul-18 09:00N 41°53' E 005°59'3015.5
2017-Jul-18 07:05N 41°40' E 005°23'115.6
2017-Jul-18 07:00N 41°40' E 005°22'3116.1
2017-Jul-18 05:05N 41°23' E 004°47'115.4
2017-Jul-18 05:01N 41°23' E 004°46'4615.4
2017-Jul-18 02:03N 41°03' E 003°51'115.5
2017-Jul-18 01:59N 41°02' E 003°50'715.5
2017-Jul-18 01:30N 40°58' E 003°42'815.5
2017-Jul-18 01:00N 40°54' E 003°33'815.5
2017-Jul-18 00:30N 40°51' E 003°24'815.6
2017-Jul-18 00:00N 40°48' E 003°14'815.8
2017-Jul-17 23:31N 40°44' E 003°05'815.8
2017-Jul-17 23:00N 40°40' E 002°56'815.9
2017-Jul-17 22:30N 40°36' E 002°47'815.7
2017-Jul-17 22:00N 40°32' E 002°38'815.5
2017-Jul-17 21:30N 40°28' E 002°29'815.5
2017-Jul-17 21:00N 40°25' E 002°20'815.5
2017-Jul-17 20:30N 40°21' E 002°11'815.4
2017-Jul-17 20:00N 40°18' E 002°02'815.4
2017-Jul-17 19:30N 40°14' E 001°53'815.7
2017-Jul-17 19:00N 40°10' E 001°44'815.5
2017-Jul-17 18:30N 40°06' E 001°36'815.3
2017-Jul-17 18:00N 40°02' E 001°27'715.2
2017-Jul-17 17:30N 39°59' E 001°18'815.2
2017-Jul-17 17:00N 39°55' E 001°10'815.5
2017-Jul-17 16:30N 39°52' E 001°00'815.6
2017-Jul-17 16:00N 39°48' E 000°51'30 1.2
2017-Jul-16 15:07N 39°22' E 000°31'0 0.9
2017-Jul-16 14:48N 39°22' E 000°31'0 0.8
2017-Jul-16 14:22N 39°22' E 000°31'0 0.8
2017-Jul-16 13:59N 39°21' E 000°30'20 2.4
2017-Jul-16 05:49N 39°02' E 000°29'8614.8
2017-Jul-16 00:02N 37°45' W 000°20'115.0
2017-Jul-16 00:00N 37°45' W 000°21'715.0
2017-Jul-15 23:30N 37°39' W 000°26'815.1
2017-Jul-15 23:00N 37°32' W 000°32'915.1
2017-Jul-15 22:22N 37°26' W 000°41'28915.0
2017-Jul-15 03:04N 35°54' W 006°22'114.2
2017-Jul-15 02:59N 35°54' W 006°23'714.4
2017-Jul-15 02:31N 35°56' W 006°32'814.7
2017-Jul-15 01:59N 35°58' W 006°41'2515.0
2017-Jul-15 00:20N 36°05' W 007°11'515.2
2017-Jul-15 00:00N 36°06' W 007°16'815.6
2017-Jul-14 23:30N 36°08' W 007°26'815.8
2017-Jul-14 23:00N 36°11' W 007°35'815.9
2017-Jul-14 22:30N 36°13' W 007°44'816.5
2017-Jul-14 22:01N 36°15' W 007°54'816.3
2017-Jul-14 21:30N 36°17' W 008°04'816.1
2017-Jul-14 21:01N 36°20' W 008°14'815.6
2017-Jul-14 20:30N 36°22' W 008°23'815.4
2017-Jul-14 20:01N 36°24' W 008°32'714.7
2017-Jul-14 19:31N 36°25' W 008°41'5 9.9
2017-Jul-14 19:01N 36°27' W 008°47'5 9.7
2017-Jul-14 18:30N 36°28' W 008°53'714.1
2017-Jul-14 18:01N 36°30' W 009°01'714.8
2017-Jul-14 17:30N 36°32' W 009°10'714.3
2017-Jul-14 17:00N 36°35' W 009°18'714.7
2017-Jul-14 16:30N 36°40' W 009°25'714.8
2017-Jul-14 16:00N 36°46' W 009°31'714.5
2017-Jul-14 15:30N 36°52' W 009°34'815.4
2017-Jul-14 15:00N 36°60' W 009°35'815.4
2017-Jul-14 14:31N 37°08' W 009°37'815.4
2017-Jul-14 14:00N 37°15' W 009°40'815.3
2017-Jul-14 13:30N 37°22' W 009°42'815.5
2017-Jul-14 13:00N 37°30' W 009°45'815.7
2017-Jul-14 12:30N 37°37' W 009°47'815.8
2017-Jul-14 12:00N 37°45' W 009°50'815.8
2017-Jul-14 11:30N 37°53' W 009°52'816.5
2017-Jul-14 11:00N 38°01' W 009°56'816.1
2017-Jul-14 10:30N 38°08' W 009°59'816.3
2017-Jul-14 10:00N 38°16' W 010°01'815.9
2017-Jul-14 09:30N 38°24' W 010°02'815.6
2017-Jul-14 09:00N 38°32' W 010°04'815.4
2017-Jul-14 08:30N 38°39' W 010°06'815.2
2017-Jul-14 08:00N 38°47' W 010°06'815.7
2017-Jul-14 07:30N 38°55' W 010°06'816.2
2017-Jul-14 07:00N 39°03' W 010°05'917.0
2017-Jul-14 06:30N 39°11' W 010°03'816.2
2017-Jul-14 06:00N 39°19' W 010°01'815.7
2017-Jul-14 05:30N 39°27' W 009°59'815.7
2017-Jul-14 05:00N 39°35' W 009°57'815.8
2017-Jul-14 04:30N 39°42' W 009°54'815.7
2017-Jul-14 03:59N 39°50' W 009°52'815.7
2017-Jul-14 03:30N 39°57' W 009°49'815.6
2017-Jul-14 03:00N 40°05' W 009°46'815.5
2017-Jul-14 02:29N 40°13' W 009°44'815.6
2017-Jul-14 01:59N 40°20' W 009°41'815.7
2017-Jul-14 01:30N 40°28' W 009°38'815.7
2017-Jul-14 01:00N 40°35' W 009°36'815.6
2017-Jul-14 00:30N 40°43' W 009°33'1115.6
2017-Jul-13 23:46N 40°54' W 009°29'515.8
2017-Jul-13 23:29N 40°58' W 009°28'815.8
2017-Jul-13 22:58N 41°06' W 009°25'3315.9
2017-Jul-13 20:55N 41°38' W 009°14'  
Track history (hours):
 
Tides and Currents Weather Stations Pressure Air Temp Water Temp Dewpoint Dewpoint Depression Visibility Wind Speed Wind Dir Waves Ship Positions

Emerald Leader

Last reported at 2017-Jul-22 19:53 UTC. Time now 2017-Jul-28 08:40 UTC.
Position N 37°36' E 023°57'.

Length 176 m; draft 7.9 m.

Type: Cargo ship. MMSI: 308688000.

Date/timePositionNaut miles runAvg speedWind from/ knotsBaromVisibWave heightAir tempDewpointWater temp
2017-Jul-22 19:53N 37°36' E 023°57'715.8
2017-Jul-22 19:25N 37°36' E 023°48'615.0
2017-Jul-22 19:01N 37°40' E 023°42'815.7
2017-Jul-22 18:31N 37°47' E 023°38'815.1
2017-Jul-22 18:01N 37°55' E 023°37'3 5.5
2017-Jul-22 17:29N 37°58' E 023°36'0 0.0
2017-Jul-22 16:59N 37°58' E 023°36'0 0.0
2017-Jul-22 16:26N 37°58' E 023°36'0 0.0
2017-Jul-22 15:59N 37°58' E 023°36'0 0.0
2017-Jul-22 15:29N 37°58' E 023°36'0 0.0
2017-Jul-22 14:59N 37°58' E 023°36'0 0.0
2017-Jul-22 13:59N 37°58' E 023°36'0 0.0
2017-Jul-22 13:29N 37°58' E 023°36'0 0.0
2017-Jul-22 12:56N 37°58' E 023°36'0 0.0
2017-Jul-22 12:29N 37°58' E 023°36'1 1.8
2017-Jul-22 12:00N 37°57' E 023°36'3 5.1
2017-Jul-22 11:30N 37°54' E 023°37'1 1.4
2017-Jul-22 11:00N 37°54' E 023°36'1 1.1
2017-Jul-22 10:30N 37°54' E 023°36'0 0.6
2017-Jul-22 10:00N 37°54' E 023°35'2 3.4
2017-Jul-22 09:30N 37°53' E 023°37'510.2
2017-Jul-22 09:00N 37°49' E 023°41'510.7
2017-Jul-22 08:30N 37°44' E 023°43'713.2
2017-Jul-22 08:00N 37°37' E 023°45'25011.6
2017-Jul-21 10:30N 37°12' E 018°32'815.8
2017-Jul-21 10:00N 37°14' E 018°23'2016.0
2017-Jul-21 08:45N 37°19' E 017°58'2616.2
2017-Jul-21 07:10N 37°26' E 017°28'316.3
2017-Jul-21 06:58N 37°27' E 017°24'817.1
2017-Jul-21 06:30N 37°29' E 017°14'816.5
2017-Jul-21 06:00N 37°31' E 017°04'815.8
2017-Jul-21 05:30N 37°33' E 016°54'915.7
2017-Jul-21 04:55N 37°36' E 016°43'715.5
2017-Jul-21 04:30N 37°38' E 016°35'2015.5
2017-Jul-21 03:14N 37°41' E 016°11'1415.2
2017-Jul-21 02:18N 37°47' E 015°54'515.2
2017-Jul-21 01:59N 37°48' E 015°48'1512.8
2017-Jul-21 00:48N 37°57' E 015°34'516.1
2017-Jul-21 00:29N 38°03' E 015°33'715.5
2017-Jul-21 00:00N 38°10' E 015°35'816.3
2017-Jul-20 23:29N 38°17' E 015°40'611.7
2017-Jul-20 22:59N 38°22' E 015°36'714.8
2017-Jul-20 22:30N 38°27' E 015°30'815.8
2017-Jul-20 22:00N 38°33' E 015°23'815.9
2017-Jul-20 21:30N 38°38' E 015°16'815.7
2017-Jul-20 21:00N 38°44' E 015°09'815.6
2017-Jul-20 20:28N 38°49' E 015°01'715.5
2017-Jul-20 20:00N 38°54' E 014°53'21915.7
2017-Jul-20 06:02N 41°20' E 011°19'015.5
2017-Jul-20 06:00N 41°20' E 011°19'915.4
2017-Jul-20 05:26N 41°26' E 011°10'715.3
2017-Jul-20 05:00N 41°30' E 011°03'815.4
2017-Jul-20 04:31N 41°35' E 010°55'1015.4
2017-Jul-20 03:51N 41°42' E 010°45'715.3
2017-Jul-20 03:22N 41°47' E 010°38'515.0
2017-Jul-20 03:00N 41°51' E 010°32'1615.1
2017-Jul-20 01:56N 42°01' E 010°16'715.3
2017-Jul-20 01:30N 42°05' E 010°09'815.8
2017-Jul-20 01:00N 42°07' E 009°59'1813.2
2017-Jul-19 23:37N 42°24' E 009°50'215.9
2017-Jul-19 23:30N 42°26' E 009°51'915.7
2017-Jul-19 22:55N 42°35' E 009°52'615.5
2017-Jul-19 22:30N 42°42' E 009°54'815.4
2017-Jul-19 22:00N 42°49' E 009°56'815.4
2017-Jul-19 21:31N 42°57' E 009°58'815.5
2017-Jul-19 21:01N 43°04' E 010°01'815.5
2017-Jul-19 20:31N 43°12' E 010°03'815.8
2017-Jul-19 20:01N 43°19' E 010°06'815.7
2017-Jul-19 19:31N 43°27' E 010°09'713.4
2017-Jul-19 19:00N 43°32' E 010°15'3 6.8
2017-Jul-19 18:31N 43°34' E 010°18'1 1.1
2017-Jul-19 17:59N 43°35' E 010°18'0 0.0
2017-Jul-19 17:29N 43°35' E 010°18'0 0.0
2017-Jul-19 16:59N 43°35' E 010°18'0 0.0
2017-Jul-19 16:26N 43°35' E 010°18'0 0.0
2017-Jul-19 15:47N 43°35' E 010°18'0 0.0
2017-Jul-19 15:26N 43°35' E 010°18'0 0.0
2017-Jul-19 14:59N 43°35' E 010°18'0 0.0
2017-Jul-19 14:23N 43°35' E 010°18'0 0.0
2017-Jul-19 13:59N 43°35' E 010°18'0 0.0
2017-Jul-19 13:29N 43°35' E 010°18'0 0.0
2017-Jul-19 12:59N 43°35' E 010°18'0 0.0
2017-Jul-19 12:26N 43°35' E 010°18'0 0.0
2017-Jul-19 11:56N 43°35' E 010°18'0 0.0
2017-Jul-19 11:23N 43°35' E 010°18'0 0.0
2017-Jul-19 10:59N 43°35' E 010°18'0 0.0
2017-Jul-19 10:29N 43°35' E 010°18'0 0.0
2017-Jul-19 09:59N 43°35' E 010°18'0 0.0
2017-Jul-19 09:26N 43°35' E 010°18'0 0.0
2017-Jul-19 08:56N 43°35' E 010°18'0 0.0
2017-Jul-19 08:29N 43°35' E 010°18'0 0.7
2017-Jul-19 08:00N 43°34' E 010°18'4 8.1
2017-Jul-19 07:30N 43°31' E 010°15'4 8.4
2017-Jul-19 07:00N 43°27' E 010°13'1 1.4
2017-Jul-19 06:30N 43°27' E 010°13'0 0.9
2017-Jul-19 06:01N 43°26' E 010°12'2 3.4
2017-Jul-19 05:30N 43°25' E 010°10'5 9.1
2017-Jul-19 05:00N 43°22' E 010°05'611.2
2017-Jul-19 04:31N 43°19' E 010°00'815.2
2017-Jul-19 04:01N 43°16' E 009°50'815.5
2017-Jul-19 03:31N 43°15' E 009°40'815.6
2017-Jul-19 03:01N 43°13' E 009°29'815.4
2017-Jul-19 02:31N 43°11' E 009°19'815.5
2017-Jul-19 02:01N 43°09' E 009°09'815.9
2017-Jul-19 01:29N 43°07' E 008°57'613.0
2017-Jul-19 01:00N 43°06' E 008°49'1013.2
2017-Jul-19 00:16N 42°60' E 008°39'615.9
2017-Jul-18 23:53N 42°57' E 008°32'715.8
2017-Jul-18 23:26N 42°53' E 008°24'715.6
2017-Jul-18 23:00N 42°50' E 008°15'815.6
2017-Jul-18 22:30N 42°46' E 008°06'815.7
2017-Jul-18 22:00N 42°43' E 007°56'5 9.0
2017-Jul-18 21:31N 42°41' E 007°51'0 0.5
2017-Jul-18 21:00N 42°41' E 007°51'0 0.5
2017-Jul-18 20:15N 42°41' E 007°50'1 0.5
2017-Jul-18 18:13N 42°40' E 007°49'0 0.4
2017-Jul-18 18:00N 42°40' E 007°49'0 0.4
2017-Jul-18 17:02N 42°40' E 007°49'0 0.6
2017-Jul-18 17:01N 42°40' E 007°49'0 0.4
2017-Jul-18 16:30N 42°40' E 007°48'21 7.6
2017-Jul-18 13:46N 42°30' E 007°24'415.5
2017-Jul-18 13:30N 42°28' E 007°19'1115.2
2017-Jul-18 12:49N 42°22' E 007°06'1515.2
2017-Jul-18 11:49N 42°15' E 006°48'1115.3
2017-Jul-18 11:04N 42°10' E 006°35'115.4
2017-Jul-18 11:00N 42°09' E 006°34'1915.4
2017-Jul-18 09:46N 41°58' E 006°13'1015.3
2017-Jul-18 09:09N 41°53' E 006°02'215.1
2017-Jul-18 09:00N 41°53' E 005°59'3015.5
2017-Jul-18 07:05N 41°40' E 005°23'115.6
2017-Jul-18 07:00N 41°40' E 005°22'3116.1
2017-Jul-18 05:05N 41°23' E 004°47'115.4
2017-Jul-18 05:01N 41°23' E 004°46'4615.4
2017-Jul-18 02:03N 41°03' E 003°51'115.5
2017-Jul-18 01:59N 41°02' E 003°50'715.5
2017-Jul-18 01:30N 40°58' E 003°42'815.5
2017-Jul-18 01:00N 40°54' E 003°33'815.5
2017-Jul-18 00:30N 40°51' E 003°24'815.6
2017-Jul-18 00:00N 40°48' E 003°14'815.8
2017-Jul-17 23:31N 40°44' E 003°05'815.8
2017-Jul-17 23:00N 40°40' E 002°56'815.9
2017-Jul-17 22:30N 40°36' E 002°47'815.7
2017-Jul-17 22:00N 40°32' E 002°38'815.5
2017-Jul-17 21:30N 40°28' E 002°29'815.5
2017-Jul-17 21:00N 40°25' E 002°20'815.5
2017-Jul-17 20:30N 40°21' E 002°11'815.4
2017-Jul-17 20:00N 40°18' E 002°02'815.4
2017-Jul-17 19:30N 40°14' E 001°53'815.7
2017-Jul-17 19:00N 40°10' E 001°44'815.5
2017-Jul-17 18:30N 40°06' E 001°36'815.3
2017-Jul-17 18:00N 40°02' E 001°27'715.2
2017-Jul-17 17:30N 39°59' E 001°18'815.2
2017-Jul-17 17:00N 39°55' E 001°10'815.5
2017-Jul-17 16:30N 39°52' E 001°00'815.6
2017-Jul-17 16:00N 39°48' E 000°51'30 1.2
2017-Jul-16 15:07N 39°22' E 000°31'0 0.9
2017-Jul-16 14:48N 39°22' E 000°31'0 0.8
2017-Jul-16 14:22N 39°22' E 000°31'0 0.8
2017-Jul-16 13:59N 39°21' E 000°30'20 2.4
2017-Jul-16 05:49N 39°02' E 000°29'8614.8
2017-Jul-16 00:02N 37°45' W 000°20'115.0
2017-Jul-16 00:00N 37°45' W 000°21'715.0
2017-Jul-15 23:30N 37°39' W 000°26'815.1
2017-Jul-15 23:00N 37°32' W 000°32'915.1
2017-Jul-15 22:22N 37°26' W 000°41'28915.0
2017-Jul-15 03:04N 35°54' W 006°22'114.2
2017-Jul-15 02:59N 35°54' W 006°23'714.4
2017-Jul-15 02:31N 35°56' W 006°32'814.7
2017-Jul-15 01:59N 35°58' W 006°41'2515.0
2017-Jul-15 00:20N 36°05' W 007°11'515.2
2017-Jul-15 00:00N 36°06' W 007°16'815.6
2017-Jul-14 23:30N 36°08' W 007°26'815.8
2017-Jul-14 23:00N 36°11' W 007°35'815.9
2017-Jul-14 22:30N 36°13' W 007°44'816.5
2017-Jul-14 22:01N 36°15' W 007°54'816.3
2017-Jul-14 21:30N 36°17' W 008°04'816.1
2017-Jul-14 21:01N 36°20' W 008°14'815.6
2017-Jul-14 20:30N 36°22' W 008°23'815.4
2017-Jul-14 20:01N 36°24' W 008°32'714.7
2017-Jul-14 19:31N 36°25' W 008°41'5 9.9
2017-Jul-14 19:01N 36°27' W 008°47'5 9.7
2017-Jul-14 18:30N 36°28' W 008°53'714.1
2017-Jul-14 18:01N 36°30' W 009°01'714.8
2017-Jul-14 17:30N 36°32' W 009°10'714.3
2017-Jul-14 17:00N 36°35' W 009°18'714.7
2017-Jul-14 16:30N 36°40' W 009°25'714.8
2017-Jul-14 16:00N 36°46' W 009°31'714.5
2017-Jul-14 15:30N 36°52' W 009°34'815.4
2017-Jul-14 15:00N 36°60' W 009°35'815.4
2017-Jul-14 14:31N 37°08' W 009°37'815.4
2017-Jul-14 14:00N 37°15' W 009°40'815.3
2017-Jul-14 13:30N 37°22' W 009°42'815.5
2017-Jul-14 13:00N 37°30' W 009°45'815.7
2017-Jul-14 12:30N 37°37' W 009°47'815.8
2017-Jul-14 12:00N 37°45' W 009°50'815.8
2017-Jul-14 11:30N 37°53' W 009°52'816.5
2017-Jul-14 11:00N 38°01' W 009°56'816.1
2017-Jul-14 10:30N 38°08' W 009°59'816.3
2017-Jul-14 10:00N 38°16' W 010°01'815.9
2017-Jul-14 09:30N 38°24' W 010°02'815.6
2017-Jul-14 09:00N 38°32' W 010°04'815.4
2017-Jul-14 08:30N 38°39' W 010°06'815.2
2017-Jul-14 08:00N 38°47' W 010°06'815.7
2017-Jul-14 07:30N 38°55' W 010°06'816.2
2017-Jul-14 07:00N 39°03' W 010°05'917.0
2017-Jul-14 06:30N 39°11' W 010°03'816.2
2017-Jul-14 06:00N 39°19' W 010°01'815.7
2017-Jul-14 05:30N 39°27' W 009°59'815.7
2017-Jul-14 05:00N 39°35' W 009°57'815.8
2017-Jul-14 04:30N 39°42' W 009°54'815.7
2017-Jul-14 03:59N 39°50' W 009°52'815.7
2017-Jul-14 03:30N 39°57' W 009°49'815.6
2017-Jul-14 03:00N 40°05' W 009°46'815.5
2017-Jul-14 02:29N 40°13' W 009°44'815.6
2017-Jul-14 01:59N 40°20' W 009°41'815.7
2017-Jul-14 01:30N 40°28' W 009°38'815.7
2017-Jul-14 01:00N 40°35' W 009°36'815.6
2017-Jul-14 00:30N 40°43' W 009°33'1115.6
2017-Jul-13 23:46N 40°54' W 009°29'515.8
2017-Jul-13 23:29N 40°58' W 009°28'815.8
2017-Jul-13 22:58N 41°06' W 009°25'3315.9
2017-Jul-13 20:55N 41°38' W 009°14'  

Dump ship's entire track history